Time;durP1;ratioP1;P1;durP2;ratioP2;P2;SDS_P1;SDS_P2;PMS_P1;PMS_P2;Temp;Humidity;BMP_temperature;BMP_pressure;BME280_temperature;BME280_humidity;BME280_pressure;Samples;Min_cycle;Max_cycle;Signal;HPM_P1;HPM_P2
2023/04/08 00:01:56;;;;;;;5.33;2.97;;;16.90;64.80;;;;;;5053390;28;20610;-45
2023/04/08 00:04:26;;;;;;;5.40;2.70;;;16.90;64.80;;;;;;5046599;28;20535;-45
2023/04/08 00:06:56;;;;;;;8.00;3.20;;;16.90;64.80;;;;;;5021945;28;20203;-45
2023/04/08 00:09:28;;;;;;;8.30;3.27;;;16.90;64.90;;;;;;5036963;28;20213;-45
2023/04/08 00:12:00;;;;;;;4.60;2.80;;;16.90;64.80;;;;;;5051943;28;20213;-45
2023/04/08 00:14:29;;;;;;;9.50;3.10;;;16.90;64.80;;;;;;5050150;28;20229;-45
2023/04/08 00:17:01;;;;;;;7.23;2.93;;;16.90;64.70;;;;;;5049516;28;20250;-45
2023/04/08 00:19:33;;;;;;;5.83;2.50;;;16.90;64.70;;;;;;5034277;28;20260;-45
2023/04/08 00:22:03;;;;;;;6.03;2.10;;;16.90;64.70;;;;;;5051568;28;20587;-45
2023/04/08 00:24:33;;;;;;;5.00;2.43;;;16.90;64.80;;;;;;5049619;28;20209;-45
2023/04/08 00:27:03;;;;;;;5.77;2.60;;;16.90;64.80;;;;;;5034841;28;20198;-45
2023/04/08 00:29:35;;;;;;;4.13;2.37;;;16.90;64.90;;;;;;5038172;28;20207;-45
2023/04/08 00:32:09;;;;;;;4.70;2.60;;;16.90;64.70;;;;;;5034345;28;20652;-45
2023/04/08 00:34:41;;;;;;;5.00;2.10;;;16.90;64.70;;;;;;5049752;28;20677;-45
2023/04/08 00:37:12;;;;;;;4.63;2.17;;;16.90;64.80;;;;;;5052514;28;20229;-45
2023/04/08 00:39:42;;;;;;;5.23;2.10;;;16.90;64.80;;;;;;5053018;28;20268;-45
2023/04/08 00:42:16;;;;;;;5.37;2.60;;;16.90;64.70;;;;;;5050739;28;20583;-45
2023/04/08 00:44:47;;;;;;;5.93;2.33;;;16.90;64.70;;;;;;5049342;28;20198;-45
2023/04/08 00:47:17;;;;;;;6.10;2.47;;;16.90;64.70;;;;;;5047178;28;20518;-45
2023/04/08 00:49:50;;;;;;;4.47;2.40;;;16.90;64.60;;;;;;5049314;28;20210;-45
2023/04/08 00:52:18;;;;;;;4.97;2.20;;;16.90;64.60;;;;;;5034400;28;20628;-45
2023/04/08 00:54:48;;;;;;;4.73;2.17;;;16.90;64.60;;;;;;5047174;28;20680;-45
2023/04/08 00:57:20;;;;;;;5.83;2.40;;;16.90;64.70;;;;;;5036297;28;20218;-45
2023/04/08 00:59:51;;;;;;;4.13;2.17;;;16.90;64.60;;;;;;5050243;28;20187;-45
2023/04/08 01:02:31;;;;;;;3.90;1.87;;;16.90;64.60;;;;;;5054526;28;20194;-45
2023/04/08 01:05:18;;;;;;;4.40;2.13;;;16.90;64.60;;;;;;5033517;28;20206;-45
2023/04/08 01:08:06;;;;;;;4.27;2.27;;;16.90;64.60;;;;;;5042181;28;20244;-45
2023/04/08 01:10:40;;;;;;;5.53;2.10;;;16.90;64.50;;;;;;5025419;28;20213;-45
2023/04/08 01:13:29;;;;;;;3.23;2.10;;;16.90;64.60;;;;;;5021276;28;20195;-45
2023/04/08 01:16:00;;;;;;;3.80;2.00;;;16.80;64.70;;;;;;5047292;28;20207;-45
2023/04/08 01:18:40;;;;;;;2.73;1.90;;;16.90;64.60;;;;;;5024791;28;20218;-45
2023/04/08 01:21:13;;;;;;;3.47;1.87;;;16.90;64.70;;;;;;5025479;28;20236;-45
2023/04/08 01:24:12;;;;;;;4.57;2.23;;;16.90;64.60;;;;;;5033197;28;20203;-45
2023/04/08 01:26:43;;;;;;;3.13;1.90;;;16.90;64.60;;;;;;5032767;28;20194;-45
2023/04/08 01:29:17;;;;;;;3.87;2.13;;;16.90;64.60;;;;;;5018672;28;20214;-45
2023/04/08 01:31:48;;;;;;;5.30;2.17;;;16.90;64.50;;;;;;5049570;28;20206;-45
2023/04/08 01:34:22;;;;;;;5.70;1.90;;;16.90;64.60;;;;;;5039949;28;20186;-45
2023/04/08 01:36:56;;;;;;;2.53;1.70;;;16.90;64.60;;;;;;5042629;28;20209;-45
2023/04/08 01:39:26;;;;;;;2.33;1.50;;;16.90;64.60;;;;;;5033320;28;20275;-45
2023/04/08 01:41:58;;;;;;;2.50;1.33;;;16.90;64.60;;;;;;5046736;28;20218;-45
2023/04/08 01:44:32;;;;;;;2.37;1.73;;;16.80;64.50;;;;;;5029747;28;20237;-45
2023/04/08 01:47:02;;;;;;;3.83;1.70;;;16.90;64.70;;;;;;5049593;28;20221;-45
2023/04/08 01:49:34;;;;;;;3.73;2.10;;;16.80;64.50;;;;;;5049745;28;20556;-45
2023/04/08 01:52:09;;;;;;;3.73;1.87;;;16.90;64.80;;;;;;5017534;28;20206;-45
2023/04/08 01:54:40;;;;;;;3.03;1.70;;;16.90;64.60;;;;;;5030718;28;20218;-45
2023/04/08 01:57:23;;;;;;;4.83;2.27;;;16.90;64.50;;;;;;5047674;28;20245;-45
2023/04/08 01:59:56;;;;;;;4.10;2.00;;;16.80;64.50;;;;;;5027821;28;20620;-45
2023/04/08 02:02:35;;;;;;;3.73;1.70;;;16.90;64.50;;;;;;5047278;28;20198;-45
2023/04/08 02:05:20;;;;;;;2.40;1.50;;;16.80;64.50;;;;;;5028709;28;20221;-45
2023/04/08 02:07:51;;;;;;;2.60;1.30;;;16.80;64.40;;;;;;5029244;28;20237;-45
2023/04/08 02:10:22;;;;;;;2.03;1.53;;;16.90;64.60;;;;;;5009097;28;20696;-45
2023/04/08 02:12:56;;;;;;;3.10;1.60;;;16.80;64.40;;;;;;5049093;28;20213;-45
2023/04/08 02:15:28;;;;;;;2.13;1.53;;;16.80;64.50;;;;;;5036652;28;20219;-45
2023/04/08 02:18:21;;;;;;;3.03;1.60;;;16.90;64.50;;;;;;5040978;28;20230;-45
2023/04/08 02:21:01;;;;;;;2.63;1.70;;;16.90;64.50;;;;;;5037291;28;20241;-45
2023/04/08 02:23:33;;;;;;;3.90;1.93;;;16.80;64.40;;;;;;5049770;28;20202;-45
2023/04/08 02:26:18;;;;;;;2.97;1.70;;;16.90;64.40;;;;;;5032111;28;20212;-45
2023/04/08 02:28:48;;;;;;;3.03;1.57;;;16.80;64.30;;;;;;5040551;28;20240;-45
2023/04/08 02:31:20;;;;;;;2.17;1.60;;;16.80;64.30;;;;;;5035054;28;20525;-45
2023/04/08 02:33:51;;;;;;;2.43;1.70;;;16.80;64.30;;;;;;5015752;28;20260;-45
2023/04/08 02:36:38;;;;;;;2.90;1.60;;;16.80;64.40;;;;;;5015920;28;20655;-45
2023/04/08 02:39:09;;;;;;;3.43;2.10;;;16.90;64.40;;;;;;5031472;28;20182;-45
2023/04/08 02:41:43;;;;;;;4.50;1.83;;;16.80;64.40;;;;;;5047358;28;20206;-45
2023/04/08 02:44:13;;;;;;;5.07;2.07;;;16.80;64.30;;;;;;5048652;28;20187;-45
2023/04/08 02:46:44;;;;;;;2.17;1.40;;;16.80;64.30;;;;;;5020641;28;20202;-45
2023/04/08 02:49:15;;;;;;;2.57;1.60;;;16.80;64.40;;;;;;5039110;28;20621;-45
2023/04/08 02:51:44;;;;;;;2.37;1.53;;;16.80;64.30;;;;;;5044958;28;20209;-45
2023/04/08 02:54:14;;;;;;;3.57;1.57;;;16.80;64.30;;;;;;5039844;28;20214;-45
2023/04/08 02:56:44;;;;;;;2.80;1.80;;;16.80;64.40;;;;;;5046501;28;20333;-44
2023/04/08 02:59:15;;;;;;;4.07;1.50;;;16.80;64.50;;;;;;5048089;28;20190;-45
2023/04/08 03:01:47;;;;;;;2.37;1.47;;;16.80;64.40;;;;;;5048594;28;20190;-45
2023/04/08 03:04:19;;;;;;;1.77;1.30;;;16.80;64.50;;;;;;5047680;28;20264;-45
2023/04/08 03:06:50;;;;;;;2.43;1.70;;;16.90;64.40;;;;;;5043610;28;20210;-45
2023/04/08 03:09:20;;;;;;;2.47;1.60;;;16.80;64.30;;;;;;5048595;28;20202;-46
2023/04/08 03:11:53;;;;;;;3.17;1.57;;;16.80;64.30;;;;;;5050245;28;20202;-45
2023/04/08 03:14:26;;;;;;;2.33;1.40;;;16.90;64.30;;;;;;5046911;28;20232;-45
2023/04/08 03:16:55;;;;;;;4.07;1.70;;;16.80;64.30;;;;;;5046996;28;20272;-45
2023/04/08 03:19:25;;;;;;;3.17;1.70;;;16.80;64.30;;;;;;5044843;28;20197;-45
2023/04/08 03:21:55;;;;;;;1.97;1.80;;;16.80;64.30;;;;;;5049560;28;20226;-45
2023/04/08 03:24:25;;;;;;;2.10;1.60;;;16.80;64.30;;;;;;5046221;28;20198;-45
2023/04/08 03:26:57;;;;;;;1.97;1.53;;;16.80;64.30;;;;;;5048239;28;20209;-45
2023/04/08 03:29:25;;;;;;;2.40;1.50;;;16.80;64.30;;;;;;5045523;28;20218;-45
2023/04/08 03:32:00;;;;;;;2.53;1.70;;;16.80;64.30;;;;;;5049437;28;20216;-45
2023/04/08 03:34:30;;;;;;;2.87;1.60;;;16.80;64.30;;;;;;5045842;28;20209;-45
2023/04/08 03:37:20;;;;;;;3.60;1.80;;;16.80;64.30;;;;;;5033398;28;20560;-45
2023/04/08 03:39:48;;;;;;;2.90;1.80;;;16.80;64.20;;;;;;5051107;28;20305;-45
2023/04/08 03:42:20;;;;;;;3.17;2.03;;;16.80;64.20;;;;;;5053279;28;20210;-45
2023/04/08 03:44:51;;;;;;;4.70;1.90;;;16.80;64.20;;;;;;5043960;28;20197;-45
2023/04/08 03:47:22;;;;;;;2.87;1.80;;;16.80;64.10;;;;;;5051411;28;20282;-45
2023/04/08 03:49:54;;;;;;;3.27;1.73;;;16.80;64.30;;;;;;5052052;28;20209;-45
2023/04/08 03:52:24;;;;;;;2.77;2.23;;;16.80;64.10;;;;;;5051906;28;20202;-45
2023/04/08 03:54:55;;;;;;;4.53;1.80;;;16.80;64.10;;;;;;5030899;28;20297;-45
2023/04/08 03:57:25;;;;;;;2.43;1.83;;;16.80;64.10;;;;;;5060597;28;20565;-45
2023/04/08 03:59:56;;;;;;;2.60;1.60;;;16.80;64.10;;;;;;5051938;28;20225;-45
2023/04/08 04:02:26;;;;;;;2.80;1.80;;;16.80;64.10;;;;;;5040162;28;20205;-45
2023/04/08 04:04:56;;;;;;;3.57;2.10;;;16.80;64.20;;;;;;5047821;28;20207;-45
2023/04/08 04:07:25;;;;;;;3.63;2.20;;;16.80;64.20;;;;;;5051766;28;20624;-45
2023/04/08 04:09:56;;;;;;;2.80;1.80;;;16.80;64.20;;;;;;5051924;28;20508;-45
2023/04/08 04:12:27;;;;;;;3.80;2.07;;;16.80;64.20;;;;;;5051714;28;20202;-45
2023/04/08 04:14:56;;;;;;;2.83;1.67;;;16.80;64.20;;;;;;5050700;28;20577;-45
2023/04/08 04:17:29;;;;;;;2.83;1.67;;;16.80;64.20;;;;;;5052789;28;20234;-45
2023/04/08 04:20:03;;;;;;;3.33;1.77;;;16.80;64.10;;;;;;5051518;28;20230;-45
2023/04/08 04:22:35;;;;;;;2.97;1.70;;;16.80;64.10;;;;;;5049085;28;20202;-45
2023/04/08 04:25:05;;;;;;;2.30;1.80;;;16.80;64.10;;;;;;5051688;28;20598;-45
2023/04/08 04:27:38;;;;;;;2.40;1.77;;;16.80;64.10;;;;;;5051663;28;20202;-45
2023/04/08 04:30:09;;;;;;;2.87;1.80;;;16.80;64.10;;;;;;5049016;28;20562;-45
2023/04/08 04:32:51;;;;;;;3.67;1.87;;;16.80;64.10;;;;;;5053319;28;20195;-45
2023/04/08 04:35:21;;;;;;;3.10;1.93;;;16.80;64.10;;;;;;5035365;28;20203;-45
2023/04/08 04:37:50;;;;;;;3.50;2.40;;;16.80;64.10;;;;;;5034525;28;20257;-45
2023/04/08 04:40:21;;;;;;;2.43;2.00;;;16.80;64.10;;;;;;5052508;28;20201;-45
2023/04/08 04:42:50;;;;;;;2.83;1.97;;;16.80;64.20;;;;;;5028131;28;20949;-45
2023/04/08 04:45:21;;;;;;;5.17;2.00;;;16.80;64.00;;;;;;5051339;28;20198;-44
2023/04/08 04:47:50;;;;;;;2.33;1.90;;;16.80;64.10;;;;;;5032573;28;20198;-45
2023/04/08 04:50:24;;;;;;;4.07;2.20;;;16.80;64.00;;;;;;5047369;28;20214;-45
2023/04/08 04:52:55;;;;;;;2.97;1.93;;;16.70;63.90;;;;;;5046768;28;20343;-45
2023/04/08 04:55:26;;;;;;;2.70;1.67;;;16.80;63.90;;;;;;5034366;28;20221;-45
2023/04/08 04:57:55;;;;;;;3.73;2.43;;;16.80;63.80;;;;;;5062584;28;20297;-45
2023/04/08 05:00:26;;;;;;;4.87;2.10;;;16.80;63.80;;;;;;5050440;28;20623;-45
2023/04/08 05:03:02;;;;;;;4.07;2.30;;;16.70;63.60;;;;;;5050756;28;20189;-45
2023/04/08 05:05:34;;;;;;;3.63;2.20;;;16.70;63.60;;;;;;5048426;28;20225;-45
2023/04/08 05:08:06;;;;;;;4.40;2.47;;;16.80;63.70;;;;;;5050744;28;20225;-45
2023/04/08 05:10:35;;;;;;;4.13;2.30;;;16.80;63.60;;;;;;5047380;28;20223;-45
2023/04/08 05:13:07;;;;;;;2.67;2.30;;;16.80;63.70;;;;;;5049008;28;20229;-45
2023/04/08 05:15:37;;;;;;;4.17;2.90;;;16.80;63.50;;;;;;5050255;28;20190;-45
2023/04/08 05:18:05;;;;;;;3.87;2.57;;;16.80;63.50;;;;;;5048010;28;20245;-45
2023/04/08 05:20:36;;;;;;;4.00;2.70;;;16.80;63.50;;;;;;5030895;28;20316;-45
2023/04/08 05:23:06;;;;;;;5.10;2.73;;;16.70;63.40;;;;;;5048009;28;20671;-45
2023/04/08 05:25:37;;;;;;;3.33;2.53;;;16.70;63.30;;;;;;5050367;28;20257;-45
2023/04/08 05:28:06;;;;;;;3.23;2.43;;;16.70;63.40;;;;;;5050596;28;20710;-45
2023/04/08 05:30:38;;;;;;;3.70;2.87;;;16.70;63.40;;;;;;5046103;28;20222;-45
2023/04/08 05:33:06;;;;;;;4.17;2.70;;;16.70;63.40;;;;;;5049408;28;20210;-45
2023/04/08 05:35:38;;;;;;;4.57;2.80;;;16.70;63.40;;;;;;5033030;28;20670;-45
2023/04/08 05:38:09;;;;;;;3.47;2.70;;;16.70;63.30;;;;;;5052299;28;20225;-45
2023/04/08 05:40:40;;;;;;;3.70;2.67;;;16.70;63.30;;;;;;5048602;28;20745;-45
2023/04/08 05:43:11;;;;;;;3.43;2.67;;;16.70;63.30;;;;;;5053398;28;20196;-45
2023/04/08 05:45:39;;;;;;;4.17;2.90;;;16.70;63.30;;;;;;5048972;28;20214;-45
2023/04/08 05:48:08;;;;;;;5.03;3.00;;;16.70;63.30;;;;;;5050857;28;20213;-45
2023/04/08 05:50:39;;;;;;;4.27;2.90;;;16.70;63.30;;;;;;5050563;28;20206;-45
2023/04/08 05:53:10;;;;;;;5.43;3.00;;;16.70;63.20;;;;;;5044876;28;20215;-45
2023/04/08 05:55:44;;;;;;;5.33;2.80;;;16.70;63.20;;;;;;5050133;28;20202;-45
2023/04/08 05:58:16;;;;;;;3.80;3.20;;;16.70;63.20;;;;;;5049026;28;20199;-45
2023/04/08 06:00:47;;;;;;;4.67;2.90;;;16.70;63.20;;;;;;5030371;28;20248;-45
2023/04/08 06:03:18;;;;;;;4.83;3.30;;;16.70;63.10;;;;;;5051352;28;20316;-45
2023/04/08 06:05:51;;;;;;;5.20;3.17;;;16.70;63.10;;;;;;5049093;28;20217;-45
2023/04/08 06:08:23;;;;;;;4.93;3.17;;;16.70;63.20;;;;;;5050368;28;20206;-45
2023/04/08 06:10:55;;;;;;;4.57;3.60;;;16.70;63.50;;;;;;5049954;28;20582;-45
2023/04/08 06:13:24;;;;;;;6.57;3.87;;;16.70;63.40;;;;;;5046322;28;20514;-45
2023/04/08 06:15:53;;;;;;;7.60;3.57;;;16.70;64.50;;;;;;5050587;28;20193;-45
2023/04/08 06:18:23;;;;;;;5.43;3.53;;;16.70;64.70;;;;;;5046729;28;20519;-45
2023/04/08 06:20:52;;;;;;;7.70;3.50;;;16.70;64.50;;;;;;5047667;28;20702;-45
2023/04/08 06:23:23;;;;;;;5.37;3.80;;;16.70;64.60;;;;;;5049119;28;20203;-45
2023/04/08 06:25:56;;;;;;;5.63;4.40;;;16.70;64.40;;;;;;5048608;28;20199;-45
2023/04/08 06:28:28;;;;;;;6.40;5.00;;;16.70;64.30;;;;;;5049172;28;20203;-45
2023/04/08 06:30:57;;;;;;;6.97;5.20;;;16.80;64.30;;;;;;5061283;28;20205;-46
2023/04/08 06:33:40;;;;;;;9.37;5.13;;;16.80;64.30;;;;;;5049496;28;20231;-46
2023/04/08 06:36:12;;;;;;;8.80;5.37;;;16.70;64.20;;;;;;5044656;28;20216;-45
2023/04/08 06:38:44;;;;;;;11.10;5.90;;;16.70;64.10;;;;;;5046968;28;20249;-45
2023/04/08 06:41:13;;;;;;;7.27;6.57;;;16.70;64.20;;;;;;5047241;28;20229;-45
2023/04/08 06:43:42;;;;;;;9.53;6.60;;;16.70;64.00;;;;;;5034850;28;20205;-45
2023/04/08 06:46:12;;;;;;;12.43;7.87;;;16.70;64.00;;;;;;5045957;28;20277;-45
2023/04/08 06:48:44;;;;;;;9.93;7.27;;;16.80;64.00;;;;;;5046365;28;20535;-45
2023/04/08 06:51:13;;;;;;;11.07;8.20;;;16.70;64.00;;;;;;5049170;28;20673;-45
2023/04/08 06:53:43;;;;;;;11.97;7.83;;;16.80;63.90;;;;;;5046592;28;20210;-45
2023/04/08 06:56:15;;;;;;;11.40;8.70;;;16.70;63.90;;;;;;5047776;28;20205;-45
2023/04/08 06:58:47;;;;;;;11.37;9.33;;;16.80;63.90;;;;;;5045205;28;20214;-45
2023/04/08 07:01:18;;;;;;;15.03;8.97;;;16.70;63.80;;;;;;5048623;28;20220;-45
2023/04/08 07:03:46;;;;;;;36.37;13.47;;;16.70;63.60;;;;;;5048535;28;20194;-45
2023/04/08 07:06:20;;;;;;;40.87;16.40;;;16.80;64.50;;;;;;5046673;28;20414;-45
2023/04/08 07:09:03;;;;;;;45.13;15.27;;;16.80;64.50;;;;;;5047980;28;20632;-45
2023/04/08 07:11:36;;;;;;;43.17;15.70;;;16.70;64.60;;;;;;5042027;28;20527;-45
2023/04/08 07:14:08;;;;;;;35.57;14.40;;;16.70;64.00;;;;;;5055247;28;20572;-45
2023/04/08 07:16:44;;;;;;;37.87;15.77;;;16.80;63.90;;;;;;5043574;28;20190;-46
2023/04/08 07:19:14;;;;;;;42.87;15.70;;;16.80;63.80;;;;;;5046531;28;20249;-45
2023/04/08 07:21:44;;;;;;;37.43;16.70;;;16.80;63.80;;;;;;5048259;28;20222;-45
2023/04/08 07:24:15;;;;;;;40.03;15.70;;;16.80;63.70;;;;;;5048295;28;20186;-45
2023/04/08 07:26:44;;;;;;;36.40;16.53;;;16.80;63.60;;;;;;5045710;28;20194;-45
2023/04/08 07:29:16;;;;;;;35.00;15.87;;;16.80;63.50;;;;;;5047165;28;20287;-45
2023/04/08 07:31:47;;;;;;;33.40;15.07;;;16.80;63.50;;;;;;5048820;28;20218;-45
2023/04/08 07:34:15;;;;;;;30.63;15.23;;;16.80;63.40;;;;;;5048302;28;20225;-45
2023/04/08 07:36:45;;;;;;;30.93;14.57;;;16.80;63.40;;;;;;5036289;28;20205;-45
2023/04/08 07:39:16;;;;;;;30.20;14.77;;;16.80;64.00;;;;;;5048027;28;20245;-45
2023/04/08 07:41:47;;;;;;;30.83;14.70;;;16.80;63.40;;;;;;5045791;28;20231;-45
2023/04/08 07:44:21;;;;;;;28.63;14.97;;;16.80;63.30;;;;;;5052048;28;20838;-45
2023/04/08 07:46:51;;;;;;;28.27;15.27;;;16.80;63.20;;;;;;5045483;28;20198;-45
2023/04/08 07:49:21;;;;;;;26.00;14.07;;;16.80;63.20;;;;;;5029973;28;20197;-45
2023/04/08 07:51:55;;;;;;;29.23;14.37;;;16.80;63.10;;;;;;5039428;28;20197;-45
2023/04/08 07:54:26;;;;;;;21.93;12.67;;;16.80;63.20;;;;;;5046304;28;20358;-45
2023/04/08 07:56:58;;;;;;;23.03;12.40;;;16.80;63.10;;;;;;5046843;28;20260;-45
2023/04/08 07:59:31;;;;;;;19.50;11.37;;;16.80;63.10;;;;;;5058936;28;20213;-45
2023/04/08 08:02:00;;;;;;;19.03;12.33;;;16.80;63.10;;;;;;5038623;28;20502;-45
2023/04/08 08:04:33;;;;;;;17.97;11.43;;;16.80;63.10;;;;;;5041755;28;20216;-45
2023/04/08 08:07:05;;;;;;;19.33;11.97;;;16.80;63.10;;;;;;5048974;28;20538;-45
2023/04/08 08:09:35;;;;;;;18.73;12.43;;;16.80;63.00;;;;;;5048130;28;20256;-45
2023/04/08 08:12:07;;;;;;;16.17;11.73;;;16.80;63.70;;;;;;5031326;28;20229;-45
2023/04/08 08:14:38;;;;;;;19.30;11.77;;;16.80;63.00;;;;;;5044224;28;20195;-45
2023/04/08 08:17:11;;;;;;;14.73;10.57;;;16.80;62.90;;;;;;5045725;28;20549;-45
2023/04/08 08:19:42;;;;;;;14.63;10.33;;;16.90;62.90;;;;;;5048659;28;20218;-46
2023/04/08 08:22:13;;;;;;;18.37;10.40;;;16.90;62.90;;;;;;5048664;28;20190;-46
2023/04/08 08:24:43;;;;;;;17.57;10.90;;;16.80;62.80;;;;;;5048648;28;20202;-45
2023/04/08 08:27:13;;;;;;;15.13;10.40;;;16.80;62.70;;;;;;5052045;28;20186;-45
2023/04/08 08:29:43;;;;;;;11.97;9.30;;;16.90;62.80;;;;;;5053878;28;20582;-45
2023/04/08 08:32:14;;;;;;;13.27;9.67;;;16.90;62.70;;;;;;5051241;28;20216;-45
2023/04/08 08:34:46;;;;;;;12.63;9.00;;;16.80;62.80;;;;;;5043658;28;20576;-45
2023/04/08 08:37:17;;;;;;;13.40;9.63;;;16.90;62.70;;;;;;5051869;28;20194;-45
2023/04/08 08:39:46;;;;;;;10.67;8.77;;;16.90;62.60;;;;;;5051744;28;20602;-45
2023/04/08 08:42:25;;;;;;;10.37;7.77;;;16.90;62.60;;;;;;5050903;28;20191;-46
2023/04/08 08:44:55;;;;;;;11.10;8.77;;;16.90;62.50;;;;;;5026607;28;20222;-45
2023/04/08 08:47:25;;;;;;;10.30;8.57;;;16.90;62.50;;;;;;5050944;28;20194;-46
2023/04/08 08:49:56;;;;;;;11.63;8.27;;;16.90;62.50;;;;;;5050805;28;20229;-45
2023/04/08 08:52:29;;;;;;;10.77;8.40;;;16.90;62.50;;;;;;5050607;28;20198;-45
2023/04/08 08:55:01;;;;;;;10.70;8.63;;;17.00;62.60;;;;;;5050180;28;20214;-45
2023/04/08 08:57:45;;;;;;;12.10;8.17;;;17.00;62.50;;;;;;5056201;28;20896;-45
2023/04/08 09:00:17;;;;;;;8.43;7.50;;;17.00;62.70;;;;;;5055104;28;20198;-45
2023/04/08 09:02:50;;;;;;;8.80;7.87;;;17.00;62.70;;;;;;5052577;28;20194;-45
2023/04/08 09:05:19;;;;;;;10.23;8.10;;;17.00;62.60;;;;;;5050628;28;20631;-45
2023/04/08 09:08:01;;;;;;;10.83;8.33;;;17.00;62.60;;;;;;5037662;28;20200;-45
2023/04/08 09:10:32;;;;;;;10.07;7.53;;;17.00;62.50;;;;;;5042964;28;20615;-45
2023/04/08 09:13:03;;;;;;;7.80;6.77;;;17.00;62.50;;;;;;5055041;28;20647;-46
2023/04/08 09:15:32;;;;;;;10.17;7.63;;;17.00;62.40;;;;;;5054099;28;20202;-45
2023/04/08 09:18:23;;;;;;;8.70;6.87;;;16.90;62.30;;;;;;5030651;28;20540;-45
2023/04/08 09:20:57;;;;;;;8.60;7.03;;;17.00;62.40;;;;;;5052584;28;20743;-45
2023/04/08 09:23:46;;;;;;;9.20;7.17;;;17.00;62.30;;;;;;5054210;28;20190;-45
2023/04/08 09:26:23;;;;;;;8.30;7.23;;;17.00;62.30;;;;;;5055863;28;20187;-45
2023/04/08 09:29:11;;;;;;;10.00;7.47;;;17.00;62.30;;;;;;5030511;28;20684;-45
2023/04/08 09:31:59;;;;;;;13.90;7.50;;;17.00;62.30;;;;;;5036794;28;20218;-45
2023/04/08 09:34:31;;;;;;;8.00;7.20;;;17.00;62.30;;;;;;5022580;28;20297;-45
2023/04/08 09:37:03;;;;;;;9.97;7.27;;;17.00;62.20;;;;;;5039521;28;20202;-45
2023/04/08 09:39:32;;;;;;;7.40;6.60;;;17.00;62.20;;;;;;5035551;28;20233;-45
2023/04/08 09:42:11;;;;;;;8.63;7.07;;;17.00;62.10;;;;;;5048598;28;20194;-45
2023/04/08 09:44:45;;;;;;;7.23;6.53;;;17.00;62.10;;;;;;5048025;28;20608;-45
2023/04/08 09:47:26;;;;;;;7.20;6.50;;;17.00;62.10;;;;;;5051294;28;20673;-45
2023/04/08 09:50:07;;;;;;;7.70;6.40;;;17.00;62.10;;;;;;5047972;28;20217;-45
2023/04/08 09:52:53;;;;;;;8.23;6.23;;;17.10;62.10;;;;;;5047111;28;20202;-46
2023/04/08 09:55:32;;;;;;;7.90;6.70;;;17.00;62.00;;;;;;5052159;28;20217;-45
2023/04/08 09:58:15;;;;;;;7.17;6.43;;;17.10;62.10;;;;;;5058611;28;20690;-45
2023/04/08 10:00:49;;;;;;;7.00;6.30;;;17.00;62.60;;;;;;5032491;28;20596;-45
2023/04/08 10:03:27;;;;;;;7.27;6.40;;;17.10;62.00;;;;;;5036197;28;20255;-45
2023/04/08 10:06:02;;;;;;;6.53;5.83;;;17.10;62.00;;;;;;5044275;28;20213;-45
2023/04/08 10:08:34;;;;;;;7.13;6.50;;;17.10;62.00;;;;;;5034157;28;20202;-46
2023/04/08 10:11:04;;;;;;;6.87;5.80;;;17.10;62.00;;;;;;5037600;28;20206;-45
2023/04/08 10:13:36;;;;;;;6.33;5.73;;;17.10;62.00;;;;;;5035865;28;20198;-45
2023/04/08 10:16:27;;;;;;;6.93;6.10;;;17.10;62.00;;;;;;5039649;28;20198;-45
2023/04/08 10:18:55;;;;;;;5.87;5.33;;;17.10;61.90;;;;;;5052845;28;20218;-45
2023/04/08 10:21:48;;;;;;;6.80;6.03;;;17.10;61.80;;;;;;5034047;28;20230;-45
2023/04/08 10:24:23;;;;;;;7.47;5.50;;;17.10;61.80;;;;;;5025608;28;20210;-45
2023/04/08 10:26:55;;;;;;;6.90;5.93;;;17.10;61.80;;;;;;5052146;28;20205;-45
2023/04/08 10:29:31;;;;;;;6.60;6.00;;;17.10;61.70;;;;;;5051213;28;20221;-45
2023/04/08 10:32:04;;;;;;;6.17;5.57;;;17.10;61.80;;;;;;5032958;28;20202;-45
2023/04/08 10:34:51;;;;;;;6.43;5.83;;;17.20;61.70;;;;;;5035911;28;20187;-47
2023/04/08 10:37:23;;;;;;;5.63;5.07;;;17.10;61.60;;;;;;5034005;28;20195;-45
2023/04/08 10:39:54;;;;;;;6.57;5.97;;;17.10;61.60;;;;;;5043582;28;20219;-45
2023/04/08 10:42:31;;;;;;;6.13;5.53;;;17.20;61.60;;;;;;5050785;28;20226;-45
2023/04/08 10:45:01;;;;;;;6.33;5.73;;;17.20;61.50;;;;;;5048914;28;20244;-45
2023/04/08 10:47:31;;;;;;;6.37;5.77;;;17.20;61.60;;;;;;5049383;28;20260;-45
2023/04/08 10:49:59;;;;;;;7.23;5.87;;;17.20;61.40;;;;;;5050089;28;20277;-46
2023/04/08 10:52:30;;;;;;;6.13;5.47;;;17.20;61.50;;;;;;5050127;28;20190;-45
2023/04/08 10:54:59;;;;;;;6.20;5.60;;;17.20;61.40;;;;;;5049849;28;20622;-45
2023/04/08 10:57:31;;;;;;;6.60;5.77;;;17.30;61.40;;;;;;5050092;28;20201;-45
2023/04/08 11:00:04;;;;;;;6.70;5.73;;;17.30;61.50;;;;;;5050133;28;20272;-46
2023/04/08 11:02:42;;;;;;;6.10;5.50;;;17.30;61.40;;;;;;5049391;28;20532;-45
2023/04/08 11:05:15;;;;;;;6.37;5.73;;;17.30;61.50;;;;;;5049414;28;20225;-45
2023/04/08 11:07:48;;;;;;;6.20;5.60;;;17.30;61.40;;;;;;5042863;28;20186;-45
2023/04/08 11:10:15;;;;;;;6.40;5.77;;;17.30;61.50;;;;;;5053818;28;20210;-45
2023/04/08 11:12:44;;;;;;;6.37;5.77;;;17.40;61.50;;;;;;5052436;28;20202;-45
2023/04/08 11:15:16;;;;;;;7.43;5.80;;;17.30;61.50;;;;;;5054009;28;20214;-45
2023/04/08 11:17:46;;;;;;;6.43;5.77;;;17.30;61.40;;;;;;5050399;28;20233;-45
2023/04/08 11:20:17;;;;;;;5.90;5.40;;;17.30;61.40;;;;;;5033183;28;20262;-45
2023/04/08 11:22:51;;;;;;;5.70;5.10;;;17.30;61.50;;;;;;5034274;28;20549;-45
2023/04/08 11:25:20;;;;;;;5.80;5.30;;;17.30;61.50;;;;;;5052389;28;20206;-46
2023/04/08 11:27:51;;;;;;;6.60;5.33;;;17.40;61.50;;;;;;5051872;28;20213;-46
2023/04/08 11:30:24;;;;;;;6.17;5.57;;;17.40;61.60;;;;;;5048087;28;20203;-46
2023/04/08 11:32:55;;;;;;;6.77;5.37;;;17.30;61.60;;;;;;5048274;28;20264;-46
2023/04/08 11:35:30;;;;;;;6.13;5.43;;;17.40;61.60;;;;;;5032358;28;20347;-45
2023/04/08 11:38:05;;;;;;;6.33;5.73;;;17.40;61.60;;;;;;5032320;28;20477;-45
2023/04/08 11:40:37;;;;;;;6.30;5.73;;;17.40;61.60;;;;;;5027872;28;20284;-45
2023/04/08 11:43:16;;;;;;;5.67;5.07;;;17.40;61.70;;;;;;5049952;28;20639;-45
2023/04/08 11:45:46;;;;;;;4.83;4.33;;;17.40;61.70;;;;;;5048810;28;20194;-45
2023/04/08 11:48:17;;;;;;;5.50;5.00;;;17.40;61.70;;;;;;5016201;28;20198;-45
2023/04/08 11:50:46;;;;;;;5.53;5.03;;;17.40;61.80;;;;;;5044730;28;20205;-45
2023/04/08 11:53:23;;;;;;;5.07;4.57;;;17.40;61.90;;;;;;5046836;28;20756;-45
2023/04/08 11:55:54;;;;;;;4.33;3.93;;;17.40;61.90;;;;;;5037677;28;20198;-45
2023/04/08 11:58:27;;;;;;;4.77;3.83;;;17.40;61.90;;;;;;5051325;28;20206;-45
2023/04/08 12:01:06;;;;;;;4.53;4.17;;;17.40;61.90;;;;;;5052397;28;20205;-45
2023/04/08 12:04:03;;;;;;;5.07;4.57;;;17.40;61.90;;;;;;5052953;28;20636;-45
2023/04/08 12:06:33;;;;;;;4.47;4.07;;;17.40;62.10;;;;;;5048686;28;20237;-45
2023/04/08 12:09:02;;;;;;;5.00;4.60;;;17.50;61.80;;;;;;5052301;28;20202;-45
2023/04/08 12:11:33;;;;;;;4.67;4.27;;;17.50;61.90;;;;;;5018769;28;20632;-45
2023/04/08 12:14:06;;;;;;;6.00;4.50;;;17.40;61.90;;;;;;5052722;28;20198;-46
2023/04/08 12:16:37;;;;;;;5.03;4.53;;;17.50;62.10;;;;;;5042085;28;20202;-45
2023/04/08 12:19:09;;;;;;;6.90;4.40;;;17.50;62.10;;;;;;5050077;28;20226;-45
2023/04/08 12:21:40;;;;;;;4.87;4.37;;;17.50;62.20;;;;;;5052516;28;20616;-45
2023/04/08 12:24:22;;;;;;;4.37;3.97;;;17.50;62.10;;;;;;5056873;28;20289;-46
2023/04/08 12:26:53;;;;;;;5.03;4.53;;;17.50;62.10;;;;;;5050040;28;20191;-45
2023/04/08 12:29:25;;;;;;;5.17;4.73;;;17.50;62.10;;;;;;5049781;28;20258;-45
2023/04/08 12:31:56;;;;;;;4.83;4.43;;;17.60;62.20;;;;;;5052546;28;20199;-45
2023/04/08 12:34:23;;;;;;;4.33;3.93;;;17.60;62.30;;;;;;5052135;28;20219;-45
2023/04/08 12:36:54;;;;;;;4.80;4.33;;;17.60;62.20;;;;;;5031068;28;20943;-45
2023/04/08 12:39:27;;;;;;;5.73;5.23;;;17.60;62.20;;;;;;5055537;28;20223;-46
2023/04/08 12:41:59;;;;;;;5.33;4.83;;;17.60;62.40;;;;;;5049909;28;20201;-45
2023/04/08 12:44:27;;;;;;;5.80;5.27;;;17.60;62.30;;;;;;5051797;28;20203;-45
2023/04/08 12:46:59;;;;;;;5.83;4.23;;;17.70;62.40;;;;;;5034358;28;20202;-46
2023/04/08 12:49:30;;;;;;;4.80;4.30;;;17.60;62.40;;;;;;5051127;28;20222;-45
2023/04/08 12:52:16;;;;;;;5.30;4.80;;;17.60;62.50;;;;;;5037395;28;20632;-45
2023/04/08 12:54:47;;;;;;;5.37;4.87;;;17.70;62.50;;;;;;5047160;28;20213;-45
2023/04/08 12:57:17;;;;;;;5.10;4.60;;;17.60;62.50;;;;;;5050974;28;20202;-45
2023/04/08 12:59:47;;;;;;;5.77;4.30;;;17.70;62.60;;;;;;5051436;28;20299;-45
2023/04/08 13:02:18;;;;;;;5.40;4.40;;;17.70;62.30;;;;;;5051591;28;20229;-45
2023/04/08 13:04:51;;;;;;;4.53;4.13;;;17.70;62.40;;;;;;5046370;28;20613;-45
2023/04/08 13:07:25;;;;;;;6.33;4.80;;;17.70;62.50;;;;;;5051177;28;20194;-45
2023/04/08 13:09:56;;;;;;;4.40;4.00;;;17.70;62.30;;;;;;5050692;28;20210;-46
2023/04/08 13:12:26;;;;;;;4.53;4.13;;;17.70;62.30;;;;;;5050238;28;20636;-45